Rovaniemi, Suomi

14. elokuuta 2018 klo 16:55 (EEST) (GMT +0300)
Rovaniemi | | Change Station

Kork 646 ft 66.57 °N, 25.83 °E | Updated 5 minutes ago

Sadetta
Sadetta
54 °F
Tuntuu kuin 54 °F
N
6
Tuuli Suunnaltaan vaihteleva Tuuli ilmansuunnasta Pohjoisen ja luoteen välinen

Tänään
Korkea -- | Matala -- °F
--% Sateen mahd.
Eilen
Korkea -- | Matala -- °F
Precip. -- tuumaa
Ilmanpaine 29.83 tuumaa
Näkyvyys 6.2 mailia
Pilviä Harvoja pilviä 2800 ft
Pilvistä 10000 ft
Kastepiste 43 °F
Ilmankosteus 67%
Sademäärä 0.00 tuumaa
Lumensyvyys Ei saatavilla
4:43 AM 9:59 PM
Kasvava sirppi, 14% visible
METAR EFRO 141350Z AUTO 34005KT 9999 FEW028 BKN100 12/06 Q1010
Ilmanpaine 29.83 tuumaa
Näkyvyys 6.2 mailia
Pilviä Harvoja pilviä 2800 ft
Pilvistä 10000 ft
Kastepiste 43 °F
Ilmankosteus 67%
Sademäärä 0.00 tuumaa
Lumensyvyys Ei saatavilla
4:43 AM 9:59 PM
Kasvava sirppi, 14% visible
METAR EFRO 141350Z AUTO 34005KT 9999 FEW028 BKN100 12/06 Q1010

Get Severe Weather Alerts

Thanks for signing up!

Be on the lookout for a verification email in your inbox.

You'll start receiving the daily forecast at 6 AM.

×

10-Day Weather Forecast

×

Almanac

Tähtitiede

Aug. 14, 2018 Nousuaika Laskuaika
Valoisa aika
Porvarillinen hämärä
Nauttinen hämärä
Astronominen hämärä
Kuu
Näkyvän valon pituus
Päivän pituus
Tomorrow will be .
, % of the Moon is Illuminated

Tämän päivän ennätykset

Country Highs Country Lows

Community

WunderPhotos

Category 6

Welcome to Category 6. This is the collective home for Weather Underground's featured writeups by Dr. Jeff Masters (right), Bob Henson (left), Chris Burt, and other regular contributors.

Nearby

Ilmanlaatu

  Ilmanlaatu AQ Index Pollutant
Not available.

Lumensyvyys

Station Depth Korkeus

Maanjäristysaktiivisuus

Paikkakunta Distance Mag. Time & Date
Minimum magnitude displayed is 2.5.

Coastal Water Temperatures

Paikka Lämpötila

Stations

Lähimmät sääasemat

Aseman sijainti Lämpötila Tuulen hyytävyys Kastepiste Ilmankosteus Tuuli Precip. Kork Päivitetty Tyyppi